sensor_id;sensor_type;location;lat;lon;timestamp;pressure;altitude;pressure_sealevel;temperature;humidity
31538;BME280;18147;51.952;6.146;2023-04-09T00:01:55;102539.09;;;10.14;100.00
31538;BME280;18147;51.952;6.146;2023-04-09T00:04:20;102540.56;;;10.23;100.00
31538;BME280;18147;51.952;6.146;2023-04-09T00:06:49;102545.50;;;10.08;100.00
31538;BME280;18147;51.952;6.146;2023-04-09T00:09:14;102540.59;;;9.96;100.00
31538;BME280;18147;51.952;6.146;2023-04-09T00:11:40;102537.72;;;10.02;100.00
31538;BME280;18147;51.952;6.146;2023-04-09T00:14:06;102539.41;;;10.05;100.00
31538;BME280;18147;51.952;6.146;2023-04-09T00:16:31;102543.44;;;10.17;100.00
31538;BME280;18147;51.952;6.146;2023-04-09T00:18:58;102538.97;;;10.17;100.00
31538;BME280;18147;51.952;6.146;2023-04-09T00:21:23;102539.84;;;10.18;100.00
31538;BME280;18147;51.952;6.146;2023-04-09T00:23:49;102542.38;;;10.22;100.00
31538;BME280;18147;51.952;6.146;2023-04-09T00:26:14;102538.78;;;10.25;100.00
31538;BME280;18147;51.952;6.146;2023-04-09T00:28:40;102546.75;;;10.23;100.00
31538;BME280;18147;51.952;6.146;2023-04-09T00:31:06;102533.44;;;10.23;100.00
31538;BME280;18147;51.952;6.146;2023-04-09T00:33:32;102532.38;;;10.54;100.00
31538;BME280;18147;51.952;6.146;2023-04-09T00:35:58;102529.69;;;10.55;100.00
31538;BME280;18147;51.952;6.146;2023-04-09T00:38:23;102523.34;;;10.58;100.00
31538;BME280;18147;51.952;6.146;2023-04-09T00:40:49;102524.91;;;10.40;100.00
31538;BME280;18147;51.952;6.146;2023-04-09T00:43:18;102528.03;;;10.51;100.00
31538;BME280;18147;51.952;6.146;2023-04-09T00:45:44;102524.13;;;10.36;100.00
31538;BME280;18147;51.952;6.146;2023-04-09T00:48:11;102517.59;;;10.45;100.00
31538;BME280;18147;51.952;6.146;2023-04-09T00:50:37;102518.88;;;10.33;100.00
31538;BME280;18147;51.952;6.146;2023-04-09T00:53:06;102509.13;;;10.57;100.00
31538;BME280;18147;51.952;6.146;2023-04-09T00:55:31;102508.56;;;10.73;100.00
31538;BME280;18147;51.952;6.146;2023-04-09T00:57:58;102511.63;;;10.62;100.00
31538;BME280;18147;51.952;6.146;2023-04-09T01:00:24;102509.69;;;10.42;100.00
31538;BME280;18147;51.952;6.146;2023-04-09T01:02:52;102510.81;;;10.10;100.00
31538;BME280;18147;51.952;6.146;2023-04-09T01:05:21;102507.94;;;10.16;100.00
31538;BME280;18147;51.952;6.146;2023-04-09T01:08:03;102502.03;;;10.33;100.00
31538;BME280;18147;51.952;6.146;2023-04-09T01:10:34;102500.94;;;10.38;100.00
31538;BME280;18147;51.952;6.146;2023-04-09T01:13:11;102496.19;;;10.47;100.00
31538;BME280;18147;51.952;6.146;2023-04-09T01:15:51;102499.91;;;10.43;100.00
31538;BME280;18147;51.952;6.146;2023-04-09T01:21:12;102495.19;;;10.26;100.00
31538;BME280;18147;51.952;6.146;2023-04-09T01:29:11;102504.47;;;10.12;100.00
31538;BME280;18147;51.952;6.146;2023-04-09T01:31:38;102503.94;;;10.29;100.00
31538;BME280;18147;51.952;6.146;2023-04-09T01:34:08;102499.63;;;10.25;100.00
31538;BME280;18147;51.952;6.146;2023-04-09T01:36:35;102494.53;;;10.44;100.00
31538;BME280;18147;51.952;6.146;2023-04-09T01:39:05;102493.72;;;10.66;100.00
31538;BME280;18147;51.952;6.146;2023-04-09T01:41:32;102491.47;;;10.55;100.00
31538;BME280;18147;51.952;6.146;2023-04-09T01:44:00;102479.06;;;10.77;100.00
31538;BME280;18147;51.952;6.146;2023-04-09T01:46:28;102485.09;;;10.34;100.00
31538;BME280;18147;51.952;6.146;2023-04-09T01:48:55;102491.91;;;10.43;100.00
31538;BME280;18147;51.952;6.146;2023-04-09T01:51:21;102494.13;;;10.03;100.00
31538;BME280;18147;51.952;6.146;2023-04-09T01:53:48;102494.09;;;10.05;100.00
31538;BME280;18147;51.952;6.146;2023-04-09T01:56:14;102495.53;;;10.15;100.00
31538;BME280;18147;51.952;6.146;2023-04-09T01:58:40;102496.09;;;10.25;100.00
31538;BME280;18147;51.952;6.146;2023-04-09T02:01:09;102488.38;;;10.42;100.00
31538;BME280;18147;51.952;6.146;2023-04-09T02:03:43;102487.94;;;10.54;100.00
31538;BME280;18147;51.952;6.146;2023-04-09T02:06:19;102489.16;;;10.19;100.00
31538;BME280;18147;51.952;6.146;2023-04-09T02:08:51;102488.59;;;10.36;100.00
31538;BME280;18147;51.952;6.146;2023-04-09T02:11:20;102491.31;;;10.34;100.00
31538;BME280;18147;51.952;6.146;2023-04-09T02:13:48;102491.72;;;10.47;100.00
31538;BME280;18147;51.952;6.146;2023-04-09T02:16:14;102487.03;;;10.30;100.00
31538;BME280;18147;51.952;6.146;2023-04-09T02:18:41;102491.94;;;10.16;100.00
31538;BME280;18147;51.952;6.146;2023-04-09T02:21:07;102493.25;;;10.04;100.00
31538;BME280;18147;51.952;6.146;2023-04-09T02:23:35;102483.88;;;10.18;100.00
31538;BME280;18147;51.952;6.146;2023-04-09T02:26:01;102477.91;;;10.11;100.00
31538;BME280;18147;51.952;6.146;2023-04-09T02:28:26;102488.03;;;10.26;100.00
31538;BME280;18147;51.952;6.146;2023-04-09T02:30:52;102484.13;;;10.36;100.00
31538;BME280;18147;51.952;6.146;2023-04-09T02:33:18;102482.72;;;10.26;100.00
31538;BME280;18147;51.952;6.146;2023-04-09T02:35:43;102478.31;;;9.99;100.00
31538;BME280;18147;51.952;6.146;2023-04-09T02:38:09;102482.59;;;10.03;100.00
31538;BME280;18147;51.952;6.146;2023-04-09T02:40:40;102475.25;;;10.36;100.00
31538;BME280;18147;51.952;6.146;2023-04-09T02:43:06;102478.06;;;10.06;100.00
31538;BME280;18147;51.952;6.146;2023-04-09T02:45:34;102480.16;;;9.97;100.00
31538;BME280;18147;51.952;6.146;2023-04-09T02:48:00;102473.84;;;10.26;100.00
31538;BME280;18147;51.952;6.146;2023-04-09T02:50:28;102479.69;;;10.10;100.00
31538;BME280;18147;51.952;6.146;2023-04-09T02:52:53;102477.38;;;10.26;100.00
31538;BME280;18147;51.952;6.146;2023-04-09T02:55:20;102464.34;;;9.92;100.00
31538;BME280;18147;51.952;6.146;2023-04-09T02:57:46;102470.31;;;9.99;100.00
31538;BME280;18147;51.952;6.146;2023-04-09T03:00:12;102471.38;;;9.95;100.00
31538;BME280;18147;51.952;6.146;2023-04-09T03:02:37;102469.22;;;9.79;100.00
31538;BME280;18147;51.952;6.146;2023-04-09T03:05:03;102465.47;;;9.85;100.00
31538;BME280;18147;51.952;6.146;2023-04-09T03:07:30;102469.25;;;9.78;100.00
31538;BME280;18147;51.952;6.146;2023-04-09T03:09:56;102472.84;;;9.77;100.00
31538;BME280;18147;51.952;6.146;2023-04-09T03:12:22;102469.00;;;9.85;100.00
31538;BME280;18147;51.952;6.146;2023-04-09T03:14:50;102465.31;;;9.63;100.00
31538;BME280;18147;51.952;6.146;2023-04-09T03:17:17;102469.63;;;9.67;100.00
31538;BME280;18147;51.952;6.146;2023-04-09T03:19:45;102466.59;;;9.51;100.00
31538;BME280;18147;51.952;6.146;2023-04-09T03:22:12;102461.78;;;9.63;100.00
31538;BME280;18147;51.952;6.146;2023-04-09T03:24:38;102456.94;;;9.75;100.00
31538;BME280;18147;51.952;6.146;2023-04-09T03:27:05;102463.94;;;9.78;100.00
31538;BME280;18147;51.952;6.146;2023-04-09T03:29:31;102463.63;;;9.60;100.00
31538;BME280;18147;51.952;6.146;2023-04-09T03:31:58;102463.31;;;9.43;100.00
31538;BME280;18147;51.952;6.146;2023-04-09T03:34:23;102453.34;;;9.50;100.00
31538;BME280;18147;51.952;6.146;2023-04-09T03:36:52;102449.59;;;9.55;100.00
31538;BME280;18147;51.952;6.146;2023-04-09T03:39:24;102452.94;;;9.62;100.00
31538;BME280;18147;51.952;6.146;2023-04-09T03:41:50;102450.09;;;9.67;100.00
31538;BME280;18147;51.952;6.146;2023-04-09T03:44:16;102451.09;;;9.64;100.00
31538;BME280;18147;51.952;6.146;2023-04-09T03:46:59;102446.88;;;9.57;100.00
31538;BME280;18147;51.952;6.146;2023-04-09T03:49:26;102453.34;;;9.76;100.00
31538;BME280;18147;51.952;6.146;2023-04-09T03:51:54;102452.34;;;9.52;100.00
31538;BME280;18147;51.952;6.146;2023-04-09T03:54:21;102450.00;;;9.43;100.00
31538;BME280;18147;51.952;6.146;2023-04-09T03:56:47;102438.63;;;9.38;100.00
31538;BME280;18147;51.952;6.146;2023-04-09T03:59:18;102447.75;;;9.31;100.00
31538;BME280;18147;51.952;6.146;2023-04-09T04:01:45;102441.31;;;9.10;100.00
31538;BME280;18147;51.952;6.146;2023-04-09T04:04:12;102442.53;;;8.98;100.00
31538;BME280;18147;51.952;6.146;2023-04-09T04:06:49;102441.28;;;8.82;100.00
31538;BME280;18147;51.952;6.146;2023-04-09T04:09:38;102442.28;;;8.78;100.00
31538;BME280;18147;51.952;6.146;2023-04-09T04:12:09;102451.59;;;8.63;100.00
31538;BME280;18147;51.952;6.146;2023-04-09T04:14:54;102442.38;;;8.45;100.00
31538;BME280;18147;51.952;6.146;2023-04-09T04:17:28;102452.84;;;8.51;100.00
31538;BME280;18147;51.952;6.146;2023-04-09T04:19:54;102442.25;;;8.50;100.00
31538;BME280;18147;51.952;6.146;2023-04-09T04:22:21;102451.50;;;8.35;100.00
31538;BME280;18147;51.952;6.146;2023-04-09T04:24:51;102441.19;;;8.23;100.00
31538;BME280;18147;51.952;6.146;2023-04-09T04:27:19;102449.03;;;8.27;100.00
31538;BME280;18147;51.952;6.146;2023-04-09T04:29:45;102452.47;;;8.00;100.00
31538;BME280;18147;51.952;6.146;2023-04-09T04:32:21;102452.41;;;8.01;100.00
31538;BME280;18147;51.952;6.146;2023-04-09T04:34:48;102452.78;;;8.20;100.00
31538;BME280;18147;51.952;6.146;2023-04-09T04:37:21;102450.00;;;7.92;100.00
31538;BME280;18147;51.952;6.146;2023-04-09T04:39:47;102453.56;;;7.91;100.00
31538;BME280;18147;51.952;6.146;2023-04-09T04:42:15;102457.19;;;7.89;100.00
31538;BME280;18147;51.952;6.146;2023-04-09T04:44:42;102452.59;;;7.95;100.00
31538;BME280;18147;51.952;6.146;2023-04-09T04:47:24;102458.41;;;7.75;100.00
31538;BME280;18147;51.952;6.146;2023-04-09T04:49:50;102467.97;;;7.83;100.00
31538;BME280;18147;51.952;6.146;2023-04-09T04:52:16;102457.88;;;7.61;100.00
31538;BME280;18147;51.952;6.146;2023-04-09T04:54:45;102457.84;;;7.63;100.00
31538;BME280;18147;51.952;6.146;2023-04-09T04:57:16;102461.69;;;7.51;100.00
31538;BME280;18147;51.952;6.146;2023-04-09T04:59:42;102455.28;;;7.60;100.00
31538;BME280;18147;51.952;6.146;2023-04-09T05:02:10;102458.66;;;7.66;100.00
31538;BME280;18147;51.952;6.146;2023-04-09T05:04:49;102465.91;;;7.22;100.00
31538;BME280;18147;51.952;6.146;2023-04-09T05:07:18;102463.78;;;7.38;100.00
31538;BME280;18147;51.952;6.146;2023-04-09T05:09:49;102461.13;;;7.72;100.00
31538;BME280;18147;51.952;6.146;2023-04-09T05:12:15;102468.06;;;7.42;100.00
31538;BME280;18147;51.952;6.146;2023-04-09T05:14:46;102466.66;;;7.65;100.00
31538;BME280;18147;51.952;6.146;2023-04-09T05:17:12;102459.72;;;7.23;100.00
31538;BME280;18147;51.952;6.146;2023-04-09T05:19:41;102465.69;;;7.69;100.00
31538;BME280;18147;51.952;6.146;2023-04-09T05:22:08;102455.72;;;7.77;100.00
31538;BME280;18147;51.952;6.146;2023-04-09T05:24:33;102450.34;;;7.44;100.00
31538;BME280;18147;51.952;6.146;2023-04-09T05:26:59;102455.69;;;7.78;100.00
31538;BME280;18147;51.952;6.146;2023-04-09T05:29:27;102454.25;;;7.65;100.00
31538;BME280;18147;51.952;6.146;2023-04-09T05:31:53;102456.47;;;7.82;100.00
31538;BME280;18147;51.952;6.146;2023-04-09T05:34:35;102457.72;;;7.67;100.00
31538;BME280;18147;51.952;6.146;2023-04-09T05:37:02;102449.72;;;8.03;100.00
31538;BME280;18147;51.952;6.146;2023-04-09T05:39:28;102451.66;;;7.62;100.00
31538;BME280;18147;51.952;6.146;2023-04-09T05:41:54;102452.94;;;7.83;100.00
31538;BME280;18147;51.952;6.146;2023-04-09T05:44:23;102455.94;;;8.02;100.00
31538;BME280;18147;51.952;6.146;2023-04-09T05:46:53;102458.47;;;8.07;100.00
31538;BME280;18147;51.952;6.146;2023-04-09T05:49:23;102450.63;;;8.03;100.00
31538;BME280;18147;51.952;6.146;2023-04-09T05:51:51;102461.13;;;8.07;100.00
31538;BME280;18147;51.952;6.146;2023-04-09T05:54:23;102459.28;;;8.10;100.00
31538;BME280;18147;51.952;6.146;2023-04-09T05:56:48;102452.09;;;8.46;100.00
31538;BME280;18147;51.952;6.146;2023-04-09T05:59:14;102454.75;;;8.46;100.00
31538;BME280;18147;51.952;6.146;2023-04-09T06:01:39;102450.06;;;8.23;100.00
31538;BME280;18147;51.952;6.146;2023-04-09T06:04:05;102454.06;;;8.40;100.00
31538;BME280;18147;51.952;6.146;2023-04-09T06:06:30;102455.03;;;8.67;100.00
31538;BME280;18147;51.952;6.146;2023-04-09T06:08:58;102454.25;;;8.63;100.00
31538;BME280;18147;51.952;6.146;2023-04-09T06:11:24;102451.66;;;8.62;100.00
31538;BME280;18147;51.952;6.146;2023-04-09T06:13:51;102451.09;;;8.50;100.00
31538;BME280;18147;51.952;6.146;2023-04-09T06:16:17;102441.75;;;8.96;100.00
31538;BME280;18147;51.952;6.146;2023-04-09T06:18:42;102446.53;;;9.13;100.00
31538;BME280;18147;51.952;6.146;2023-04-09T06:21:11;102444.25;;;9.01;100.00
31538;BME280;18147;51.952;6.146;2023-04-09T06:23:38;102447.06;;;8.96;100.00
31538;BME280;18147;51.952;6.146;2023-04-09T06:26:05;102447.25;;;9.18;100.00
31538;BME280;18147;51.952;6.146;2023-04-09T06:28:31;102450.38;;;9.59;100.00
31538;BME280;18147;51.952;6.146;2023-04-09T06:30:57;102454.16;;;10.03;100.00
31538;BME280;18147;51.952;6.146;2023-04-09T06:33:26;102456.13;;;10.25;100.00
31538;BME280;18147;51.952;6.146;2023-04-09T06:35:51;102455.53;;;9.90;100.00
31538;BME280;18147;51.952;6.146;2023-04-09T06:38:17;102446.78;;;10.36;100.00
31538;BME280;18147;51.952;6.146;2023-04-09T06:40:43;102448.69;;;11.03;100.00
31538;BME280;18147;51.952;6.146;2023-04-09T06:43:09;102440.66;;;10.81;100.00
31538;BME280;18147;51.952;6.146;2023-04-09T06:45:41;102447.78;;;10.81;100.00
31538;BME280;18147;51.952;6.146;2023-04-09T06:48:06;102451.13;;;11.09;100.00
31538;BME280;18147;51.952;6.146;2023-04-09T06:50:32;102450.13;;;11.12;100.00
31538;BME280;18147;51.952;6.146;2023-04-09T06:52:57;102452.47;;;11.63;100.00
31538;BME280;18147;51.952;6.146;2023-04-09T06:55:23;102449.31;;;11.74;95.72
31538;BME280;18147;51.952;6.146;2023-04-09T06:57:49;102457.28;;;11.55;97.32
31538;BME280;18147;51.952;6.146;2023-04-09T07:00:14;102456.69;;;11.91;94.79
31538;BME280;18147;51.952;6.146;2023-04-09T07:02:40;102449.38;;;11.95;91.76
31538;BME280;18147;51.952;6.146;2023-04-09T07:05:06;102461.22;;;12.09;94.10
31538;BME280;18147;51.952;6.146;2023-04-09T07:07:35;102458.16;;;12.58;92.74
31538;BME280;18147;51.952;6.146;2023-04-09T07:10:01;102455.75;;;12.12;91.11
31538;BME280;18147;51.952;6.146;2023-04-09T07:12:30;102453.31;;;12.27;88.77
31538;BME280;18147;51.952;6.146;2023-04-09T07:14:57;102452.72;;;12.40;91.00
31538;BME280;18147;51.952;6.146;2023-04-09T07:17:23;102454.75;;;12.54;85.44
31538;BME280;18147;51.952;6.146;2023-04-09T07:19:49;102453.91;;;13.10;85.00
31538;BME280;18147;51.952;6.146;2023-04-09T07:22:16;102450.59;;;13.05;82.32
31538;BME280;18147;51.952;6.146;2023-04-09T07:24:42;102452.44;;;12.84;85.01
31538;BME280;18147;51.952;6.146;2023-04-09T07:27:08;102446.34;;;13.18;82.46
31538;BME280;18147;51.952;6.146;2023-04-09T07:29:34;102454.13;;;12.87;85.29
31538;BME280;18147;51.952;6.146;2023-04-09T07:32:00;102451.28;;;13.09;82.80
31538;BME280;18147;51.952;6.146;2023-04-09T07:34:27;102450.06;;;13.16;83.75
31538;BME280;18147;51.952;6.146;2023-04-09T07:36:53;102453.97;;;12.52;83.52
31538;BME280;18147;51.952;6.146;2023-04-09T07:39:19;102453.41;;;12.83;84.02
31538;BME280;18147;51.952;6.146;2023-04-09T07:41:46;102452.06;;;13.48;84.42
31538;BME280;18147;51.952;6.146;2023-04-09T07:44:13;102460.28;;;13.80;79.24
31538;BME280;18147;51.952;6.146;2023-04-09T07:46:38;102452.16;;;13.28;80.18
31538;BME280;18147;51.952;6.146;2023-04-09T07:49:05;102451.19;;;13.65;79.28
31538;BME280;18147;51.952;6.146;2023-04-09T07:51:30;102451.38;;;13.97;76.29
31538;BME280;18147;51.952;6.146;2023-04-09T07:53:56;102448.59;;;13.46;77.48
31538;BME280;18147;51.952;6.146;2023-04-09T07:56:21;102448.41;;;13.86;76.50
31538;BME280;18147;51.952;6.146;2023-04-09T07:58:47;102454.69;;;13.67;76.94
31538;BME280;18147;51.952;6.146;2023-04-09T08:01:14;102451.59;;;13.40;78.23
31538;BME280;18147;51.952;6.146;2023-04-09T08:03:39;102460.13;;;14.00;76.64
31538;BME280;18147;51.952;6.146;2023-04-09T08:06:05;102459.19;;;13.84;79.25
31538;BME280;18147;51.952;6.146;2023-04-09T08:08:31;102465.69;;;13.44;79.53
31538;BME280;18147;51.952;6.146;2023-04-09T08:10:57;102464.78;;;13.97;75.93
31538;BME280;18147;51.952;6.146;2023-04-09T08:13:23;102462.38;;;14.25;75.99
31538;BME280;18147;51.952;6.146;2023-04-09T08:15:49;102461.81;;;13.86;74.14
31538;BME280;18147;51.952;6.146;2023-04-09T08:18:15;102463.91;;;13.26;76.08
31538;BME280;18147;51.952;6.146;2023-04-09T08:20:40;102469.06;;;14.01;77.95
31538;BME280;18147;51.952;6.146;2023-04-09T08:23:10;102448.06;;;14.60;74.17
31538;BME280;18147;51.952;6.146;2023-04-09T08:25:36;102452.13;;;14.51;70.00
31538;BME280;18147;51.952;6.146;2023-04-09T08:28:01;102452.13;;;14.51;70.64
31538;BME280;18147;51.952;6.146;2023-04-09T08:30:27;102455.56;;;14.86;69.65
31538;BME280;18147;51.952;6.146;2023-04-09T08:32:53;102443.91;;;14.70;72.71
31538;BME280;18147;51.952;6.146;2023-04-09T08:35:21;102459.50;;;13.95;71.98
31538;BME280;18147;51.952;6.146;2023-04-09T08:37:47;102450.94;;;14.39;73.13
31538;BME280;18147;51.952;6.146;2023-04-09T08:40:13;102459.50;;;13.95;73.68
31538;BME280;18147;51.952;6.146;2023-04-09T08:42:46;102458.44;;;14.15;73.75
31538;BME280;18147;51.952;6.146;2023-04-09T08:45:17;102469.28;;;13.79;73.42
31538;BME280;18147;51.952;6.146;2023-04-09T08:47:44;102462.03;;;13.98;72.14
31538;BME280;18147;51.952;6.146;2023-04-09T08:50:12;102450.13;;;14.55;70.66
31538;BME280;18147;51.952;6.146;2023-04-09T08:52:38;102460.28;;;13.97;68.14
31538;BME280;18147;51.952;6.146;2023-04-09T08:55:10;102457.06;;;13.73;69.73
31538;BME280;18147;51.952;6.146;2023-04-09T08:57:40;102459.00;;;14.05;68.97
31538;BME280;18147;51.952;6.146;2023-04-09T09:00:06;102455.09;;;14.12;66.32
31538;BME280;18147;51.952;6.146;2023-04-09T09:02:33;102445.31;;;14.61;66.71
31538;BME280;18147;51.952;6.146;2023-04-09T09:05:00;102455.78;;;13.98;66.43
31538;BME280;18147;51.952;6.146;2023-04-09T09:07:29;102448.47;;;14.35;64.33
31538;BME280;18147;51.952;6.146;2023-04-09T09:10:00;102451.13;;;14.19;66.96
31538;BME280;18147;51.952;6.146;2023-04-09T09:12:29;102440.19;;;14.06;66.81
31538;BME280;18147;51.952;6.146;2023-04-09T09:14:55;102428.31;;;14.61;65.48
31538;BME280;18147;51.952;6.146;2023-04-09T09:17:20;102429.53;;;14.38;68.17
31538;BME280;18147;51.952;6.146;2023-04-09T09:19:46;102426.53;;;14.93;69.00
31538;BME280;18147;51.952;6.146;2023-04-09T09:22:11;102425.56;;;14.45;65.26
31538;BME280;18147;51.952;6.146;2023-04-09T09:24:48;102431.56;;;14.17;65.75
31538;BME280;18147;51.952;6.146;2023-04-09T09:27:30;102421.38;;;14.23;65.60
31538;BME280;18147;51.952;6.146;2023-04-09T09:30:03;102413.28;;;14.90;67.29
31538;BME280;18147;51.952;6.146;2023-04-09T09:32:31;102416.38;;;14.33;66.49
31538;BME280;18147;51.952;6.146;2023-04-09T09:35:06;102412.66;;;14.85;65.94
31538;BME280;18147;51.952;6.146;2023-04-09T09:37:32;102406.69;;;14.80;64.56
31538;BME280;18147;51.952;6.146;2023-04-09T09:39:59;102415.31;;;14.53;61.92
31538;BME280;18147;51.952;6.146;2023-04-09T09:42:24;102403.22;;;14.93;62.45
31538;BME280;18147;51.952;6.146;2023-04-09T09:44:52;102408.84;;;14.57;63.61
31538;BME280;18147;51.952;6.146;2023-04-09T09:47:20;102413.22;;;15.53;65.38
31538;BME280;18147;51.952;6.146;2023-04-09T09:49:49;102411.88;;;14.51;60.60
31538;BME280;18147;51.952;6.146;2023-04-09T09:52:19;102411.94;;;14.65;59.10
31538;BME280;18147;51.952;6.146;2023-04-09T09:54:47;102407.28;;;15.00;63.45
31538;BME280;18147;51.952;6.146;2023-04-09T09:57:19;102409.50;;;14.61;61.83
31538;BME280;18147;51.952;6.146;2023-04-09T10:00:00;102409.22;;;14.83;61.61
31538;BME280;18147;51.952;6.146;2023-04-09T10:02:27;102402.00;;;14.67;58.27
31538;BME280;18147;51.952;6.146;2023-04-09T10:05:00;102401.03;;;15.00;60.06
31538;BME280;18147;51.952;6.146;2023-04-09T10:07:25;102407.63;;;15.10;58.97
31538;BME280;18147;51.952;6.146;2023-04-09T10:09:53;102409.72;;;14.89;56.65
31538;BME280;18147;51.952;6.146;2023-04-09T10:12:21;102404.94;;;14.94;54.84
31538;BME280;18147;51.952;6.146;2023-04-09T10:14:51;102404.69;;;14.83;55.04
31538;BME280;18147;51.952;6.146;2023-04-09T10:17:29;102398.63;;;15.57;55.72
31538;BME280;18147;51.952;6.146;2023-04-09T10:20:10;102388.41;;;15.48;54.79
31538;BME280;18147;51.952;6.146;2023-04-09T10:22:38;102384.44;;;14.62;54.64
31538;BME280;18147;51.952;6.146;2023-04-09T10:25:05;102383.44;;;15.10;55.92
31538;BME280;18147;51.952;6.146;2023-04-09T10:27:31;102379.22;;;14.90;55.36
31538;BME280;18147;51.952;6.146;2023-04-09T10:29:56;102374.88;;;15.79;54.23
31538;BME280;18147;51.952;6.146;2023-04-09T10:32:24;102376.25;;;14.95;53.45
31538;BME280;18147;51.952;6.146;2023-04-09T10:34:55;102373.97;;;15.65;54.46
31538;BME280;18147;51.952;6.146;2023-04-09T10:37:25;102373.59;;;15.41;53.26
31538;BME280;18147;51.952;6.146;2023-04-09T10:39:52;102374.44;;;15.11;52.37
31538;BME280;18147;51.952;6.146;2023-04-09T10:42:38;102373.34;;;15.75;55.00
31538;BME280;18147;51.952;6.146;2023-04-09T10:45:11;102372.53;;;15.13;52.62
31538;BME280;18147;51.952;6.146;2023-04-09T10:47:39;102363.22;;;15.65;53.61
31538;BME280;18147;51.952;6.146;2023-04-09T10:50:15;102363.28;;;14.87;54.33
31538;BME280;18147;51.952;6.146;2023-04-09T10:52:41;102362.16;;;15.37;54.36
31538;BME280;18147;51.952;6.146;2023-04-09T10:55:09;102366.44;;;16.00;53.57
31538;BME280;18147;51.952;6.146;2023-04-09T10:57:35;102349.63;;;16.11;54.26
31538;BME280;18147;51.952;6.146;2023-04-09T11:00:01;102357.22;;;16.04;54.50
31538;BME280;18147;51.952;6.146;2023-04-09T11:07:26;102359.22;;;15.26;53.31
31538;BME280;18147;51.952;6.146;2023-04-09T11:09:54;102354.94;;;15.98;55.23
31538;BME280;18147;51.952;6.146;2023-04-09T11:12:20;102352.38;;;14.74;51.96
31538;BME280;18147;51.952;6.146;2023-04-09T11:14:45;102357.13;;;15.47;55.02
31538;BME280;18147;51.952;6.146;2023-04-09T11:17:11;102345.69;;;15.88;56.22
31538;BME280;18147;51.952;6.146;2023-04-09T11:19:40;102350.88;;;15.46;54.26
31538;BME280;18147;51.952;6.146;2023-04-09T11:22:06;102345.06;;;15.08;52.23
31538;BME280;18147;51.952;6.146;2023-04-09T11:24:45;102346.31;;;15.33;53.11
31538;BME280;18147;51.952;6.146;2023-04-09T11:27:14;102336.56;;;15.60;54.13
31538;BME280;18147;51.952;6.146;2023-04-09T11:29:39;102333.72;;;15.03;53.43
31538;BME280;18147;51.952;6.146;2023-04-09T11:32:06;102332.66;;;15.36;52.27
31538;BME280;18147;51.952;6.146;2023-04-09T11:34:32;102331.75;;;15.21;52.46
31538;BME280;18147;51.952;6.146;2023-04-09T11:36:58;102338.38;;;15.45;53.92
31538;BME280;18147;51.952;6.146;2023-04-09T11:39:27;102321.59;;;16.56;53.84
31538;BME280;18147;51.952;6.146;2023-04-09T11:41:52;102336.75;;;16.16;55.30
31538;BME280;18147;51.952;6.146;2023-04-09T11:44:19;102325.63;;;16.08;54.29
31538;BME280;18147;51.952;6.146;2023-04-09T11:46:45;102329.47;;;15.59;53.18
31538;BME280;18147;51.952;6.146;2023-04-09T11:49:11;102320.03;;;15.82;53.25
31538;BME280;18147;51.952;6.146;2023-04-09T11:51:38;102322.03;;;15.64;54.68
31538;BME280;18147;51.952;6.146;2023-04-09T11:54:04;102321.84;;;16.39;53.80
31538;BME280;18147;51.952;6.146;2023-04-09T11:56:31;102318.06;;;16.97;55.24
31538;BME280;18147;51.952;6.146;2023-04-09T11:58:57;102320.72;;;17.24;53.71
31538;BME280;18147;51.952;6.146;2023-04-09T12:01:23;102324.25;;;16.29;53.29
31538;BME280;18147;51.952;6.146;2023-04-09T12:03:53;102326.00;;;16.16;53.34
31538;BME280;18147;51.952;6.146;2023-04-09T12:06:20;102329.66;;;16.00;52.69
31538;BME280;18147;51.952;6.146;2023-04-09T12:08:52;102334.78;;;16.75;53.38
31538;BME280;18147;51.952;6.146;2023-04-09T12:11:17;102334.09;;;16.71;51.87
31538;BME280;18147;51.952;6.146;2023-04-09T12:13:44;102333.00;;;16.47;52.47
31538;BME280;18147;51.952;6.146;2023-04-09T12:16:13;102326.50;;;16.08;54.02
31538;BME280;18147;51.952;6.146;2023-04-09T12:18:43;102328.38;;;16.20;55.82
31538;BME280;18147;51.952;6.146;2023-04-09T12:21:09;102326.91;;;16.57;54.88
31538;BME280;18147;51.952;6.146;2023-04-09T12:23:35;102310.69;;;17.78;52.19
31538;BME280;18147;51.952;6.146;2023-04-09T12:26:01;102305.25;;;16.18;50.32
31538;BME280;18147;51.952;6.146;2023-04-09T12:28:27;102314.53;;;15.69;53.38
31538;BME280;18147;51.952;6.146;2023-04-09T12:30:52;102316.72;;;16.63;54.32
31538;BME280;18147;51.952;6.146;2023-04-09T12:33:19;102317.25;;;16.82;54.46
31538;BME280;18147;51.952;6.146;2023-04-09T12:35:45;102310.66;;;16.59;54.60
31538;BME280;18147;51.952;6.146;2023-04-09T12:38:12;102308.78;;;16.88;52.57
31538;BME280;18147;51.952;6.146;2023-04-09T12:40:38;102313.78;;;15.37;53.76
31538;BME280;18147;51.952;6.146;2023-04-09T12:43:07;102309.09;;;15.55;53.10
31538;BME280;18147;51.952;6.146;2023-04-09T12:45:35;102317.88;;;15.28;55.01
31538;BME280;18147;51.952;6.146;2023-04-09T12:48:02;102315.78;;;15.34;54.50
31538;BME280;18147;51.952;6.146;2023-04-09T12:50:27;102300.38;;;15.51;53.91
31538;BME280;18147;51.952;6.146;2023-04-09T12:52:53;102297.94;;;15.77;53.69
31538;BME280;18147;51.952;6.146;2023-04-09T12:55:18;102296.81;;;15.21;55.98
31538;BME280;18147;51.952;6.146;2023-04-09T12:57:45;102294.28;;;15.64;54.79
31538;BME280;18147;51.952;6.146;2023-04-09T13:00:13;102291.69;;;16.75;55.59
31538;BME280;18147;51.952;6.146;2023-04-09T13:02:39;102290.75;;;16.89;52.84
31538;BME280;18147;51.952;6.146;2023-04-09T13:05:05;102282.22;;;16.26;52.36